createdAt,value
2022-11-10T00:00:19.002Z,2.50
2022-11-10T00:01:19.016Z,2.70
2022-11-10T00:02:18.982Z,2.60
2022-11-10T00:03:19.222Z,2.90
2022-11-10T00:04:19.000Z,2.90
2022-11-10T00:05:18.976Z,2.80
2022-11-10T00:06:18.931Z,2.50
2022-11-10T00:07:18.936Z,2.80
2022-11-10T00:08:18.919Z,2.60
2022-11-10T00:09:18.932Z,2.70
2022-11-10T00:10:18.918Z,2.70
2022-11-10T00:11:18.902Z,2.70
2022-11-10T00:12:18.878Z,2.70
2022-11-10T00:13:19.085Z,2.70
2022-11-10T00:14:18.852Z,2.70
2022-11-10T00:15:18.850Z,2.70
2022-11-10T00:16:18.849Z,2.70
2022-11-10T00:17:18.830Z,3.00
2022-11-10T00:18:18.817Z,2.90
2022-11-10T00:19:18.822Z,2.50
2022-11-10T00:20:18.779Z,3.10
2022-11-10T00:21:18.820Z,2.80
2022-11-10T00:22:18.767Z,2.90
2022-11-10T00:23:19.059Z,2.70
2022-11-10T00:24:18.744Z,2.70
2022-11-10T00:25:18.763Z,2.70
2022-11-10T00:26:18.719Z,2.80
2022-11-10T00:27:18.761Z,2.70
2022-11-10T00:28:18.698Z,2.50
2022-11-10T00:29:18.699Z,2.70
2022-11-10T00:30:18.671Z,2.50
2022-11-10T00:31:18.677Z,2.80
2022-11-10T00:32:18.678Z,2.90
2022-11-10T00:33:18.986Z,3.00
2022-11-10T00:34:18.633Z,2.70
2022-11-10T00:35:18.646Z,2.70
2022-11-10T00:36:18.611Z,2.80
2022-11-10T00:37:18.613Z,2.80
2022-11-10T00:38:18.613Z,2.80
2022-11-10T00:39:18.592Z,2.60
2022-11-10T00:40:18.586Z,2.70
2022-11-10T00:41:18.582Z,2.60
2022-11-10T00:42:18.547Z,3.10
2022-11-10T00:43:21.297Z,2.90
2022-11-10T00:44:18.539Z,2.60
2022-11-10T00:45:18.529Z,3.10
2022-11-10T00:46:18.503Z,2.50
2022-11-10T00:47:18.509Z,2.80
2022-11-10T00:48:18.490Z,2.80
2022-11-10T00:49:18.517Z,2.50
2022-11-10T00:50:18.463Z,2.80
2022-11-10T00:51:18.463Z,2.50
2022-11-10T00:52:18.464Z,2.80
2022-11-10T00:53:18.685Z,2.90
2022-11-10T00:54:18.453Z,2.90
2022-11-10T00:55:18.431Z,2.90
2022-11-10T00:56:18.403Z,2.80
2022-11-10T00:57:18.473Z,2.90
2022-11-10T00:58:18.396Z,2.80
2022-11-10T00:59:18.364Z,2.60
2022-11-10T01:00:18.403Z,2.70
2022-11-10T01:01:18.482Z,2.60
2022-11-10T01:02:18.347Z,2.80
2022-11-10T01:03:18.721Z,2.70
2022-11-10T01:04:18.325Z,3.00
2022-11-10T01:05:18.344Z,3.00
2022-11-10T01:06:18.319Z,2.90
2022-11-10T01:07:18.277Z,2.80
2022-11-10T01:08:18.285Z,3.20
2022-11-10T01:09:18.257Z,2.90
2022-11-10T01:10:18.260Z,3.30
2022-11-10T01:11:18.256Z,2.80
2022-11-10T01:12:18.239Z,2.70
2022-11-10T01:13:18.212Z,2.80
2022-11-10T01:14:18.216Z,3.00
2022-11-10T01:15:21.689Z,2.60
2022-11-10T01:16:18.251Z,2.50
2022-11-10T01:17:18.168Z,2.70
2022-11-10T01:18:18.172Z,2.90
2022-11-10T01:19:18.146Z,2.80
2022-11-10T01:20:18.155Z,2.80
2022-11-10T01:21:18.146Z,2.70
2022-11-10T01:22:18.149Z,2.90
2022-11-10T01:23:18.212Z,3.00
2022-11-10T01:24:18.108Z,2.70
2022-11-10T01:25:18.090Z,3.20
2022-11-10T01:26:18.101Z,3.20
2022-11-10T01:27:18.114Z,2.60
2022-11-10T01:28:18.067Z,2.80
2022-11-10T01:29:18.040Z,2.40
2022-11-10T01:30:18.042Z,2.60
2022-11-10T01:31:18.028Z,2.70
2022-11-10T01:32:18.028Z,2.90
2022-11-10T01:33:18.021Z,2.90
2022-11-10T01:34:18.010Z,2.60
2022-11-10T01:35:17.999Z,2.80
2022-11-10T01:36:17.983Z,2.60
2022-11-10T01:37:17.960Z,2.70
2022-11-10T01:38:18.000Z,3.00
2022-11-10T01:39:17.936Z,2.90
2022-11-10T01:40:18.016Z,2.90
2022-11-10T01:41:17.913Z,2.80
2022-11-10T01:42:17.916Z,3.30
2022-11-10T01:43:17.953Z,2.80
2022-11-10T01:44:17.919Z,2.60
2022-11-10T01:45:17.878Z,2.80
2022-11-10T01:46:17.879Z,2.60
2022-11-10T01:47:17.849Z,3.00
2022-11-10T01:48:17.857Z,2.80
2022-11-10T01:49:17.866Z,2.80
2022-11-10T01:50:17.832Z,2.90
2022-11-10T01:51:17.815Z,2.70
2022-11-10T01:52:17.811Z,2.90
2022-11-10T01:53:17.784Z,2.90
2022-11-10T01:54:17.790Z,3.20
2022-11-10T01:55:17.788Z,3.20
2022-11-10T01:56:17.772Z,3.10
2022-11-10T01:57:17.741Z,2.70
2022-11-10T01:58:17.744Z,3.10
2022-11-10T01:59:17.721Z,3.00
2022-11-10T02:00:17.750Z,2.70
2022-11-10T02:01:17.760Z,2.80
2022-11-10T02:02:17.704Z,3.00
2022-11-10T02:03:17.681Z,2.60
2022-11-10T02:04:17.681Z,2.90
2022-11-10T02:05:17.657Z,3.00
2022-11-10T02:06:17.718Z,2.70
2022-11-10T02:07:17.647Z,2.70
2022-11-10T02:08:17.644Z,3.20
2022-11-10T02:09:17.615Z,3.10
2022-11-10T02:10:17.619Z,3.10
2022-11-10T02:11:17.637Z,3.10
2022-11-10T02:12:17.609Z,2.90
2022-11-10T02:13:17.572Z,2.90
2022-11-10T02:14:17.581Z,3.00
2022-11-10T02:15:17.548Z,2.70
2022-11-10T02:16:17.555Z,2.80
2022-11-10T02:17:17.546Z,3.20
2022-11-10T02:18:17.543Z,2.80
2022-11-10T02:19:17.504Z,2.60
2022-11-10T02:20:17.508Z,2.70
2022-11-10T02:21:17.496Z,3.10
2022-11-10T02:22:17.739Z,2.60
2022-11-10T02:23:17.465Z,2.70
2022-11-10T02:24:17.467Z,2.80
2022-11-10T02:25:17.438Z,3.00
2022-11-10T02:26:17.445Z,2.80
2022-11-10T02:27:17.430Z,2.90
2022-11-10T02:28:17.445Z,3.10
2022-11-10T02:29:17.405Z,2.80
2022-11-10T02:30:17.402Z,2.90
2022-11-10T02:31:17.380Z,2.70
2022-11-10T02:32:17.392Z,2.80
2022-11-10T02:33:17.397Z,2.70
2022-11-10T02:34:17.361Z,2.90
2022-11-10T02:35:17.340Z,3.00
2022-11-10T02:36:17.335Z,2.70
2022-11-10T02:37:17.321Z,3.00
2022-11-10T02:38:17.319Z,2.80
2022-11-10T02:39:17.310Z,2.90
2022-11-10T02:40:17.304Z,2.60
2022-11-10T02:41:17.284Z,3.40
2022-11-10T02:42:17.273Z,2.60
2022-11-10T02:43:17.254Z,2.50
2022-11-10T02:44:17.291Z,3.30
2022-11-10T02:45:17.227Z,2.70
2022-11-10T02:46:17.255Z,2.80
2022-11-10T02:47:17.203Z,3.10
2022-11-10T02:48:17.206Z,2.90
2022-11-10T02:49:17.182Z,2.50
2022-11-10T02:50:17.206Z,2.90
2022-11-10T02:51:17.170Z,3.00
2022-11-10T02:52:17.177Z,2.50
2022-11-10T02:53:17.145Z,2.80
2022-11-10T02:54:17.143Z,2.90
2022-11-10T02:55:17.156Z,3.20
2022-11-10T02:56:17.121Z,3.00
2022-11-10T02:57:17.103Z,2.70
2022-11-10T02:58:17.216Z,2.70
2022-11-10T02:59:17.078Z,2.80
2022-11-10T03:00:17.080Z,3.10
2022-11-10T03:01:17.147Z,2.90
2022-11-10T03:02:17.064Z,3.00
2022-11-10T03:03:17.032Z,3.00
2022-11-10T03:04:17.037Z,3.00
2022-11-10T03:05:17.015Z,2.80
2022-11-10T03:06:17.060Z,2.80
2022-11-10T03:07:17.036Z,2.70
2022-11-10T03:08:17.009Z,2.80
2022-11-10T03:09:16.972Z,2.70
2022-11-10T03:10:16.981Z,2.60
2022-11-10T03:11:16.944Z,3.10
2022-11-10T03:12:16.970Z,3.10
2022-11-10T03:13:16.936Z,2.80
2022-11-10T03:14:16.925Z,3.00
2022-11-10T03:15:16.930Z,2.70
2022-11-10T03:16:16.929Z,3.10
2022-11-10T03:17:16.913Z,2.80
2022-11-10T03:18:16.900Z,2.90
2022-11-10T03:19:16.860Z,2.80
2022-11-10T03:20:16.863Z,2.90
2022-11-10T03:21:16.843Z,2.90
2022-11-10T03:22:16.840Z,2.90
2022-11-10T03:23:16.836Z,2.80
2022-11-10T03:24:16.820Z,2.90
2022-11-10T03:25:16.795Z,2.80
2022-11-10T03:26:16.811Z,3.00
2022-11-10T03:27:16.772Z,2.90
2022-11-10T03:28:16.811Z,3.20
2022-11-10T03:29:16.753Z,2.80
2022-11-10T03:30:16.761Z,2.90
2022-11-10T03:31:16.734Z,2.90
2022-11-10T03:32:16.738Z,3.20
2022-11-10T03:33:16.711Z,2.90
2022-11-10T03:34:16.736Z,2.80
2022-11-10T03:35:16.698Z,2.70
2022-11-10T03:36:16.703Z,2.80
2022-11-10T03:37:16.668Z,2.70
2022-11-10T03:38:16.674Z,2.80
2022-11-10T03:39:16.682Z,2.70
2022-11-10T03:40:16.663Z,2.70
2022-11-10T03:41:19.733Z,3.00
2022-11-10T03:42:16.630Z,2.70
2022-11-10T03:43:16.609Z,2.80
2022-11-10T03:44:16.612Z,2.90
2022-11-10T03:45:16.606Z,2.80
2022-11-10T03:46:16.586Z,3.00
2022-11-10T03:47:16.567Z,3.10
2022-11-10T03:48:16.591Z,3.10
2022-11-10T03:49:16.542Z,3.00
2022-11-10T03:50:16.588Z,3.00
2022-11-10T03:51:16.515Z,3.00
2022-11-10T03:52:16.523Z,3.10
2022-11-10T03:53:16.498Z,2.90
2022-11-10T03:54:16.514Z,2.90
2022-11-10T03:55:16.481Z,3.10
2022-11-10T03:56:16.504Z,2.90
2022-11-10T03:57:16.455Z,2.80
2022-11-10T03:58:16.463Z,2.90
2022-11-10T03:59:16.457Z,3.00
2022-11-10T04:00:16.435Z,3.00
2022-11-10T04:01:16.532Z,3.20
2022-11-10T04:02:16.414Z,3.30
2022-11-10T04:03:16.390Z,3.10
2022-11-10T04:04:16.393Z,3.10
2022-11-10T04:05:16.370Z,2.90
2022-11-10T04:06:16.414Z,2.90
2022-11-10T04:07:16.373Z,3.00
2022-11-10T04:08:16.346Z,3.10
2022-11-10T04:09:16.329Z,3.00
2022-11-10T04:10:16.331Z,3.10
2022-11-10T04:11:16.303Z,3.20
2022-11-10T04:12:20.708Z,3.00
2022-11-10T04:13:16.295Z,2.70
2022-11-10T04:14:16.284Z,3.10
2022-11-10T04:15:16.262Z,2.90
2022-11-10T04:16:16.264Z,2.70
2022-11-10T04:17:16.238Z,3.00
2022-11-10T04:18:16.277Z,3.00
2022-11-10T04:19:16.214Z,3.00
2022-11-10T04:20:16.227Z,3.10
2022-11-10T04:21:16.195Z,2.90
2022-11-10T04:22:16.199Z,2.90
2022-11-10T04:23:16.217Z,3.10
2022-11-10T04:24:16.181Z,2.80
2022-11-10T04:25:16.166Z,3.00
2022-11-10T04:26:16.169Z,3.10
2022-11-10T04:27:16.132Z,3.20
2022-11-10T04:28:16.140Z,5.10
2022-11-10T04:29:16.132Z,3.00
2022-11-10T04:30:16.113Z,3.10
2022-11-10T04:31:16.091Z,3.00
2022-11-10T04:32:16.095Z,3.20
2022-11-10T04:33:16.064Z,2.80
2022-11-10T04:34:16.101Z,3.10
2022-11-10T04:35:16.045Z,3.50
2022-11-10T04:36:16.085Z,3.20
2022-11-10T04:37:16.048Z,3.10
2022-11-10T04:38:16.026Z,3.00
2022-11-10T04:39:16.001Z,3.20
2022-11-10T04:40:16.045Z,2.90
2022-11-10T04:41:15.984Z,2.70
2022-11-10T04:42:15.990Z,2.90
2022-11-10T04:43:15.965Z,2.90
2022-11-10T04:44:15.967Z,3.00
2022-11-10T04:45:15.978Z,3.10
2022-11-10T04:46:15.944Z,3.20
2022-11-10T04:47:15.914Z,3.00
2022-11-10T04:48:15.918Z,3.20
2022-11-10T04:49:15.897Z,3.20
2022-11-10T04:50:15.899Z,3.60
2022-11-10T04:51:15.936Z,2.80
2022-11-10T04:52:15.955Z,3.70
2022-11-10T04:53:15.851Z,3.40
2022-11-10T04:54:15.859Z,3.30
2022-11-10T04:55:15.832Z,2.80
2022-11-10T04:56:15.874Z,3.50
2022-11-10T04:57:15.809Z,3.20
2022-11-10T04:58:15.832Z,3.20
2022-11-10T04:59:15.787Z,3.20
2022-11-10T05:00:15.793Z,4.10
2022-11-10T05:01:15.782Z,4.20
2022-11-10T05:02:15.805Z,3.90
2022-11-10T05:03:15.746Z,4.40
2022-11-10T05:04:15.766Z,3.80
2022-11-10T05:05:15.725Z,3.60
2022-11-10T05:06:15.734Z,3.70
2022-11-10T05:07:15.723Z,3.50
2022-11-10T05:08:15.729Z,3.70
2022-11-10T05:09:15.683Z,3.40
2022-11-10T05:10:15.692Z,3.50
2022-11-10T05:11:15.661Z,3.30
2022-11-10T05:12:22.129Z,3.90
2022-11-10T05:13:15.647Z,3.40
2022-11-10T05:14:15.651Z,4.00
2022-11-10T05:15:15.633Z,3.80
2022-11-10T05:16:15.605Z,3.70
2022-11-10T05:17:15.611Z,3.80
2022-11-10T05:18:15.591Z,3.60
2022-11-10T05:19:15.585Z,3.40
2022-11-10T05:20:15.594Z,3.40
2022-11-10T05:21:15.571Z,3.60
2022-11-10T05:22:15.541Z,3.70
2022-11-10T05:23:15.548Z,3.60
2022-11-10T05:24:15.527Z,3.70
2022-11-10T05:25:15.527Z,3.50
2022-11-10T05:26:15.538Z,3.70
2022-11-10T05:27:15.501Z,4.10
2022-11-10T05:28:15.480Z,3.70
2022-11-10T05:29:15.480Z,3.80
2022-11-10T05:30:15.472Z,3.90
2022-11-10T05:31:15.475Z,3.80
2022-11-10T05:32:15.488Z,3.60
2022-11-10T05:33:15.433Z,3.90
2022-11-10T05:34:15.415Z,4.20
2022-11-10T05:35:15.417Z,3.60
2022-11-10T05:36:15.396Z,3.70
2022-11-10T05:37:15.401Z,3.50
2022-11-10T05:38:15.393Z,3.90
2022-11-10T05:39:15.380Z,3.60
2022-11-10T05:40:15.347Z,3.80
2022-11-10T05:41:15.354Z,3.90
2022-11-10T05:42:15.326Z,3.70
2022-11-10T05:43:15.346Z,4.40
2022-11-10T05:44:15.331Z,3.90
2022-11-10T05:45:15.322Z,4.20
2022-11-10T05:46:15.282Z,3.70
2022-11-10T05:47:15.276Z,3.80
2022-11-10T05:48:15.289Z,4.00
2022-11-10T05:49:15.290Z,4.30
2022-11-10T05:50:15.255Z,4.00
2022-11-10T05:51:15.270Z,4.00
2022-11-10T05:52:15.226Z,4.10
2022-11-10T05:53:15.223Z,4.00
2022-11-10T05:54:15.197Z,4.00
2022-11-10T05:55:15.225Z,4.10
2022-11-10T05:56:15.175Z,4.00
2022-11-10T05:57:15.181Z,4.00
2022-11-10T05:58:15.173Z,4.20
2022-11-10T05:59:15.206Z,4.20
2022-11-10T06:00:15.181Z,4.20
2022-11-10T06:01:15.147Z,4.50
2022-11-10T06:02:15.112Z,4.40
2022-11-10T06:03:15.224Z,4.30
2022-11-10T06:04:15.094Z,4.30
2022-11-10T06:05:15.094Z,4.70
2022-11-10T06:06:15.112Z,4.70
2022-11-10T06:07:15.170Z,3.90
2022-11-10T06:08:15.052Z,4.30
2022-11-10T06:09:15.059Z,4.10
2022-11-10T06:10:15.032Z,4.50
2022-11-10T06:11:15.035Z,4.50
2022-11-10T06:12:15.036Z,4.20
2022-11-10T06:13:15.021Z,4.80
2022-11-10T06:14:14.988Z,4.70
2022-11-10T06:15:14.988Z,4.10
2022-11-10T06:16:14.983Z,5.70
2022-11-10T06:17:14.967Z,4.20
2022-11-10T06:18:14.975Z,4.00
2022-11-10T06:19:14.977Z,4.20
2022-11-10T06:20:14.918Z,4.20
2022-11-10T06:21:14.923Z,3.90
2022-11-10T06:22:14.903Z,4.30
2022-11-10T06:23:14.902Z,3.80
2022-11-10T06:24:14.904Z,3.90
2022-11-10T06:25:14.877Z,4.20
2022-11-10T06:26:14.859Z,4.30
2022-11-10T06:27:14.854Z,4.30
2022-11-10T06:28:15.008Z,4.20
2022-11-10T06:29:14.853Z,4.00
2022-11-10T06:30:14.843Z,4.20
2022-11-10T06:31:14.814Z,4.50
2022-11-10T06:32:14.790Z,4.40
2022-11-10T06:33:14.806Z,4.50
2022-11-10T06:34:14.773Z,4.60
2022-11-10T06:35:14.773Z,4.30
2022-11-10T06:36:14.795Z,4.70
2022-11-10T06:37:14.752Z,4.40
2022-11-10T06:38:14.917Z,4.40
2022-11-10T06:39:14.729Z,4.60
2022-11-10T06:40:14.702Z,4.80
2022-11-10T06:41:14.716Z,4.90
2022-11-10T06:42:14.705Z,4.80
2022-11-10T06:43:14.688Z,4.50
2022-11-10T06:44:14.670Z,4.70
2022-11-10T06:45:14.663Z,4.60
2022-11-10T06:46:14.639Z,5.10
2022-11-10T06:47:14.658Z,5.00
2022-11-10T06:48:14.650Z,4.70
2022-11-10T06:49:14.622Z,4.70
2022-11-10T06:50:14.611Z,4.80
2022-11-10T06:51:14.612Z,5.10
2022-11-10T06:52:14.576Z,4.40
2022-11-10T06:53:14.595Z,4.90
2022-11-10T06:54:14.574Z,4.80
2022-11-10T06:55:14.554Z,4.70
2022-11-10T06:56:14.537Z,4.80
2022-11-10T06:57:14.537Z,5.10
2022-11-10T06:58:14.513Z,5.00
2022-11-10T06:59:14.553Z,4.50
2022-11-10T07:00:14.520Z,4.90
2022-11-10T07:01:17.626Z,4.90
2022-11-10T07:02:14.481Z,4.60
2022-11-10T07:03:14.471Z,5.30
2022-11-10T07:04:19.673Z,5.20
2022-11-10T07:05:14.488Z,5.70
2022-11-10T07:06:14.425Z,5.50
2022-11-10T07:07:14.467Z,5.50
2022-11-10T07:08:14.658Z,5.30
2022-11-10T07:09:15.187Z,5.10
2022-11-10T07:10:14.395Z,5.20
2022-11-10T07:11:14.437Z,5.30
2022-11-10T07:12:14.373Z,5.10
2022-11-10T07:13:14.377Z,5.40
2022-11-10T07:14:14.343Z,5.20
2022-11-10T07:15:14.340Z,4.70
2022-11-10T07:16:14.321Z,4.80
2022-11-10T07:17:14.359Z,4.90
2022-11-10T07:18:14.304Z,4.70
2022-11-10T07:19:14.298Z,5.00
2022-11-10T07:20:14.288Z,5.10
2022-11-10T07:21:14.294Z,5.00
2022-11-10T07:22:14.252Z,5.10
2022-11-10T07:23:14.360Z,5.30
2022-11-10T07:24:14.237Z,5.20
2022-11-10T07:25:14.251Z,4.90
2022-11-10T07:26:14.215Z,5.50
2022-11-10T07:27:14.236Z,5.10
2022-11-10T07:28:14.190Z,5.10
2022-11-10T07:29:14.218Z,5.00
2022-11-10T07:30:14.171Z,5.10
2022-11-10T07:31:14.171Z,5.00
2022-11-10T07:32:14.146Z,5.10
2022-11-10T07:33:14.189Z,5.50
2022-11-10T07:34:14.130Z,5.10
2022-11-10T07:35:14.162Z,4.90
2022-11-10T07:36:14.103Z,5.20
2022-11-10T07:37:14.115Z,5.20
2022-11-10T07:38:14.086Z,5.80
2022-11-10T07:39:14.082Z,5.60
2022-11-10T07:40:14.064Z,5.80
2022-11-10T07:41:14.117Z,5.50
2022-11-10T07:42:14.036Z,5.50
2022-11-10T07:43:14.057Z,5.50
2022-11-10T07:44:14.041Z,5.30
2022-11-10T07:45:14.028Z,5.30
2022-11-10T07:46:13.997Z,5.30
2022-11-10T07:47:14.024Z,5.80
2022-11-10T07:48:13.972Z,5.50
2022-11-10T07:49:13.985Z,5.40
2022-11-10T07:50:13.953Z,5.50
2022-11-10T07:51:13.960Z,5.70
2022-11-10T07:52:13.941Z,5.20
2022-11-10T07:53:13.957Z,5.80
2022-11-10T07:54:13.915Z,5.60
2022-11-10T07:55:13.921Z,5.50
2022-11-10T07:56:13.887Z,5.70
2022-11-10T07:57:13.887Z,5.50
2022-11-10T07:58:13.878Z,5.70
2022-11-10T07:59:13.904Z,5.70
2022-11-10T08:00:13.849Z,6.20
2022-11-10T08:01:13.897Z,6.20
2022-11-10T08:02:13.829Z,5.60
2022-11-10T08:03:13.833Z,5.90
2022-11-10T08:04:13.812Z,5.90
2022-11-10T08:05:13.856Z,5.70
2022-11-10T08:06:13.839Z,5.40
2022-11-10T08:07:13.895Z,5.50
2022-11-10T08:08:13.765Z,5.70
2022-11-10T08:09:13.767Z,5.50
2022-11-10T08:10:13.738Z,5.20
2022-11-10T08:11:13.763Z,5.50
2022-11-10T08:12:13.717Z,5.50
2022-11-10T08:13:13.723Z,5.40
2022-11-10T08:14:13.693Z,5.50
2022-11-10T08:15:13.702Z,5.20
2022-11-10T08:16:13.679Z,5.70
2022-11-10T08:17:13.711Z,5.30
2022-11-10T08:18:13.650Z,5.30
2022-11-10T08:19:13.696Z,5.20
2022-11-10T08:20:13.635Z,4.90
2022-11-10T08:21:13.636Z,5.40
2022-11-10T08:22:13.617Z,5.40
2022-11-10T08:23:13.645Z,4.70
2022-11-10T08:24:13.594Z,5.20
2022-11-10T08:25:13.594Z,4.90
2022-11-10T08:26:13.590Z,5.50
2022-11-10T08:27:13.569Z,4.50
2022-11-10T08:28:13.548Z,4.50
2022-11-10T08:29:13.570Z,4.60
2022-11-10T08:30:13.522Z,5.30
2022-11-10T08:31:13.538Z,4.90
2022-11-10T08:32:13.500Z,4.30
2022-11-10T08:33:13.553Z,4.70
2022-11-10T08:34:13.480Z,4.90
2022-11-10T08:35:13.508Z,4.30
2022-11-10T08:36:13.473Z,4.40
2022-11-10T08:37:13.460Z,4.50
2022-11-10T08:38:13.442Z,4.40
2022-11-10T08:39:24.937Z,4.60
2022-11-10T08:40:13.422Z,4.30
2022-11-10T08:41:13.451Z,4.60
2022-11-10T08:42:13.421Z,4.70
2022-11-10T08:43:13.398Z,5.00
2022-11-10T08:44:15.562Z,4.70
2022-11-10T08:45:13.380Z,4.60
2022-11-10T08:46:13.378Z,4.80
2022-11-10T08:47:13.391Z,4.50
2022-11-10T08:48:13.329Z,5.00
2022-11-10T08:49:13.335Z,4.40
2022-11-10T08:50:13.304Z,4.60
2022-11-10T08:51:13.298Z,4.40
2022-11-10T08:52:13.285Z,4.60
2022-11-10T08:53:13.324Z,4.60
2022-11-10T08:54:13.281Z,5.00
2022-11-10T08:55:13.267Z,4.60
2022-11-10T08:56:13.250Z,4.70
2022-11-10T08:57:13.246Z,4.50
2022-11-10T08:58:13.223Z,4.50
2022-11-10T08:59:13.262Z,5.00
2022-11-10T09:00:13.220Z,4.60
2022-11-10T09:01:13.207Z,4.80
2022-11-10T09:02:13.204Z,4.60
2022-11-10T09:03:13.197Z,4.50
2022-11-10T09:04:13.194Z,4.50
2022-11-10T09:05:13.202Z,4.50
2022-11-10T09:06:13.143Z,4.70
2022-11-10T09:07:13.273Z,4.60
2022-11-10T09:08:13.123Z,4.40
2022-11-10T09:09:13.120Z,4.60
2022-11-10T09:10:13.095Z,5.00
2022-11-10T09:11:13.131Z,4.60
2022-11-10T09:12:13.068Z,4.60
2022-11-10T09:13:13.075Z,4.30
2022-11-10T09:14:13.074Z,4.00
2022-11-10T09:15:13.051Z,4.60
2022-11-10T09:16:13.069Z,4.60
2022-11-10T09:17:13.060Z,4.70
2022-11-10T09:18:13.064Z,5.00
2022-11-10T09:19:18.435Z,4.90
2022-11-10T09:20:13.126Z,4.60
2022-11-10T09:21:12.992Z,4.30
2022-11-10T09:22:12.976Z,4.70
2022-11-10T09:23:13.013Z,4.30
2022-11-10T09:24:12.952Z,4.30
2022-11-10T09:25:13.058Z,4.60
2022-11-10T09:26:12.987Z,4.40
2022-11-10T09:27:12.922Z,4.80
2022-11-10T09:28:12.905Z,4.50
2022-11-10T09:29:12.958Z,4.60
2022-11-10T09:30:17.387Z,4.80
2022-11-10T09:31:12.880Z,4.40
2022-11-10T09:32:12.870Z,4.30
2022-11-10T09:33:12.870Z,4.60
2022-11-10T09:34:12.854Z,5.10
2022-11-10T09:35:12.881Z,4.40
2022-11-10T09:36:12.831Z,4.30
2022-11-10T09:37:12.805Z,4.60
2022-11-10T09:38:12.805Z,4.10
2022-11-10T09:39:12.793Z,4.50
2022-11-10T09:40:13.170Z,4.80
2022-11-10T09:41:12.814Z,4.60
2022-11-10T09:42:12.787Z,4.00
2022-11-10T09:43:12.738Z,4.10
2022-11-10T09:44:12.744Z,4.90
2022-11-10T09:45:12.735Z,4.30
2022-11-10T09:46:12.720Z,4.30
2022-11-10T09:47:18.925Z,4.50
2022-11-10T09:48:12.716Z,4.00
2022-11-10T09:49:12.671Z,3.80
2022-11-10T09:50:12.694Z,4.20
2022-11-10T09:51:12.650Z,4.20
2022-11-10T09:52:12.658Z,4.00
2022-11-10T09:53:12.669Z,4.20
2022-11-10T09:54:12.644Z,3.90
2022-11-10T09:55:12.621Z,4.10
2022-11-10T09:56:12.624Z,4.30
2022-11-10T09:57:12.587Z,4.30
2022-11-10T09:58:12.593Z,4.10
2022-11-10T09:59:12.629Z,4.80
2022-11-10T10:00:12.577Z,3.90
2022-11-10T10:01:12.578Z,4.00
2022-11-10T10:02:12.559Z,3.70
2022-11-10T10:03:12.530Z,4.10
2022-11-10T10:04:12.528Z,4.30
2022-11-10T10:05:12.541Z,5.20
2022-11-10T10:06:12.522Z,3.80
2022-11-10T10:07:12.659Z,3.80
2022-11-10T10:08:12.494Z,3.90
2022-11-10T10:09:12.455Z,4.20
2022-11-10T10:10:17.090Z,4.70
2022-11-10T10:11:12.481Z,3.80
2022-11-10T10:12:12.436Z,4.10
2022-11-10T10:13:12.422Z,3.70
2022-11-10T10:14:12.418Z,4.00
2022-11-10T10:15:12.392Z,4.00
2022-11-10T10:16:12.398Z,3.80
2022-11-10T10:17:12.403Z,4.20
2022-11-10T10:18:12.395Z,4.30
2022-11-10T10:19:12.355Z,4.00
2022-11-10T10:20:12.353Z,4.10
2022-11-10T10:21:12.340Z,4.00
2022-11-10T10:22:12.341Z,4.20
2022-11-10T10:23:12.353Z,3.80
2022-11-10T10:24:16.528Z,3.70
2022-11-10T10:25:12.296Z,3.80
2022-11-10T10:26:12.298Z,3.40
2022-11-10T10:27:12.277Z,3.20
2022-11-10T10:28:12.403Z,3.50
2022-11-10T10:29:12.282Z,3.30
2022-11-10T10:30:12.259Z,3.30
2022-11-10T10:31:12.224Z,3.50
2022-11-10T10:32:12.223Z,3.40
2022-11-10T10:33:12.258Z,3.40
2022-11-10T10:34:12.219Z,3.60
2022-11-10T10:35:12.224Z,3.40
2022-11-10T10:36:12.191Z,3.50
2022-11-10T10:37:12.317Z,3.30
2022-11-10T10:38:12.164Z,3.50
2022-11-10T10:39:12.156Z,3.80
2022-11-10T10:40:12.145Z,3.60
2022-11-10T10:41:12.149Z,3.20
2022-11-10T10:42:12.143Z,4.20
2022-11-10T10:43:12.097Z,3.20
2022-11-10T10:44:12.096Z,3.00
2022-11-10T10:45:12.195Z,3.30
2022-11-10T10:46:12.093Z,2.80
2022-11-10T10:47:12.088Z,3.50
2022-11-10T10:48:12.052Z,3.30
2022-11-10T10:49:27.997Z,3.40
2022-11-10T10:50:12.039Z,3.30
2022-11-10T10:51:12.008Z,3.20
2022-11-10T10:52:12.025Z,3.10
2022-11-10T10:53:12.015Z,3.30
2022-11-10T10:54:12.028Z,3.10
2022-11-10T10:55:11.963Z,3.20
2022-11-10T10:56:11.964Z,3.00
2022-11-10T10:57:11.951Z,4.00
2022-11-10T10:58:11.948Z,3.10
2022-11-10T10:59:11.968Z,3.30
2022-11-10T11:00:11.937Z,3.00
2022-11-10T11:01:11.926Z,3.10
2022-11-10T11:02:11.916Z,2.60
2022-11-10T11:03:11.877Z,3.00
2022-11-10T11:04:11.881Z,3.20
2022-11-10T11:05:11.887Z,3.20
2022-11-10T11:06:11.867Z,2.90
2022-11-10T11:07:11.852Z,2.70
2022-11-10T11:08:11.842Z,3.80
2022-11-10T11:09:11.814Z,2.60
2022-11-10T11:10:11.815Z,2.70
2022-11-10T11:11:11.814Z,2.60
2022-11-10T11:12:11.798Z,2.80
2022-11-10T11:13:11.771Z,2.80
2022-11-10T11:14:11.769Z,3.20
2022-11-10T11:15:11.746Z,2.80
2022-11-10T11:16:12.987Z,2.80
2022-11-10T11:17:11.797Z,2.90
2022-11-10T11:18:11.744Z,2.60
2022-11-10T11:19:11.713Z,2.80
2022-11-10T11:20:11.709Z,2.80
2022-11-10T11:21:11.717Z,2.50
2022-11-10T11:22:11.705Z,2.80
2022-11-10T11:23:11.683Z,2.40
2022-11-10T11:24:11.665Z,2.60
2022-11-10T11:25:11.656Z,2.80
2022-11-10T11:26:11.649Z,2.80
2022-11-10T11:27:11.624Z,2.50
2022-11-10T11:28:11.700Z,2.60
2022-11-10T11:29:11.633Z,2.70
2022-11-10T11:30:11.597Z,2.50
2022-11-10T11:31:11.580Z,2.60
2022-11-10T11:32:11.589Z,2.60
2022-11-10T11:33:11.577Z,2.60
2022-11-10T11:34:11.571Z,2.60
2022-11-10T11:35:11.555Z,2.80
2022-11-10T11:36:11.545Z,2.60
2022-11-10T11:37:16.576Z,2.90
2022-11-10T11:38:11.520Z,2.40
2022-11-10T11:39:11.511Z,2.60
2022-11-10T11:40:11.498Z,2.30
2022-11-10T11:41:11.489Z,2.60
2022-11-10T11:42:11.495Z,2.80
2022-11-10T11:43:11.445Z,2.60
2022-11-10T11:44:11.456Z,2.80
2022-11-10T11:45:11.421Z,2.10
2022-11-10T11:46:11.429Z,2.30
2022-11-10T11:47:11.447Z,2.50
2022-11-10T11:48:11.403Z,2.80
2022-11-10T11:49:11.387Z,2.50
2022-11-10T11:50:11.379Z,2.70
2022-11-10T11:51:11.387Z,2.60
2022-11-10T11:52:11.358Z,2.40
2022-11-10T11:53:11.405Z,2.60
2022-11-10T11:54:11.346Z,2.80
2022-11-10T11:55:11.325Z,2.60
2022-11-10T11:56:11.321Z,2.60
2022-11-10T11:57:11.296Z,2.30
2022-11-10T11:58:11.303Z,2.70
2022-11-10T11:59:11.310Z,2.40
2022-11-10T12:00:11.286Z,2.70
2022-11-10T12:01:11.248Z,2.50
2022-11-10T12:02:11.355Z,2.60
2022-11-10T12:03:11.242Z,2.30
2022-11-10T12:04:11.236Z,2.30
2022-11-10T12:05:11.257Z,2.90
2022-11-10T12:06:11.224Z,2.70
2022-11-10T12:07:11.233Z,2.80
2022-11-10T12:08:11.191Z,2.50
2022-11-10T12:09:11.173Z,2.50
2022-11-10T12:10:11.164Z,2.60
2022-11-10T12:11:11.182Z,2.50
2022-11-10T12:12:11.185Z,2.20
2022-11-10T12:13:11.120Z,3.10
2022-11-10T12:14:11.124Z,2.50
2022-11-10T12:15:11.112Z,2.40
2022-11-10T12:16:11.118Z,2.50
2022-11-10T12:17:11.235Z,2.90
2022-11-10T12:18:11.084Z,2.70
2022-11-10T12:19:11.055Z,2.80
2022-11-10T12:20:11.062Z,2.50
2022-11-10T12:21:11.035Z,2.60
2022-11-10T12:22:11.054Z,2.60
2022-11-10T12:23:11.073Z,2.40
2022-11-10T12:24:11.035Z,2.60
2022-11-10T12:25:11.033Z,2.60
2022-11-10T12:26:11.021Z,2.60
2022-11-10T12:27:10.997Z,2.70
2022-11-10T12:28:10.976Z,2.60
2022-11-10T12:29:10.977Z,2.80
2022-11-10T12:30:10.953Z,2.70
2022-11-10T12:31:10.956Z,3.00
2022-11-10T12:32:10.975Z,2.80
2022-11-10T12:33:10.909Z,2.30
2022-11-10T12:34:10.935Z,2.30
2022-11-10T12:35:10.916Z,2.50
2022-11-10T12:36:10.887Z,2.80
2022-11-10T12:37:11.051Z,2.50
2022-11-10T12:38:10.870Z,2.40
2022-11-10T12:39:10.853Z,2.40
2022-11-10T12:40:10.923Z,2.70
2022-11-10T12:41:10.858Z,2.60
2022-11-10T12:42:10.823Z,2.50
2022-11-10T12:43:10.819Z,2.30
2022-11-10T12:44:10.800Z,2.80
2022-11-10T12:45:10.780Z,2.80
2022-11-10T12:46:11.054Z,2.40
2022-11-10T12:47:10.777Z,2.90
2022-11-10T12:48:10.758Z,2.60
2022-11-10T12:49:10.745Z,3.40
2022-11-10T12:50:10.741Z,2.80
2022-11-10T12:51:10.711Z,2.20
2022-11-10T12:52:10.729Z,2.60
2022-11-10T12:53:10.743Z,2.80
2022-11-10T12:54:16.266Z,2.80
2022-11-10T12:55:10.675Z,2.60
2022-11-10T12:56:10.669Z,2.70
2022-11-10T12:57:10.650Z,2.60
2022-11-10T12:58:10.655Z,2.60
2022-11-10T12:59:10.669Z,2.60
2022-11-10T13:00:14.074Z,2.50
2022-11-10T13:01:10.659Z,2.50
2022-11-10T13:02:10.604Z,2.80
2022-11-10T13:03:10.596Z,2.40
2022-11-10T13:04:10.584Z,2.70
2022-11-10T13:05:10.584Z,2.80
2022-11-10T13:06:10.566Z,2.50
2022-11-10T13:07:13.541Z,2.40
2022-11-10T13:08:10.557Z,2.40
2022-11-10T13:09:10.521Z,2.40
2022-11-10T13:10:10.552Z,2.60
2022-11-10T13:11:10.532Z,2.50
2022-11-10T13:12:10.503Z,2.60
2022-11-10T13:13:10.476Z,2.60
2022-11-10T13:14:10.478Z,2.60
2022-11-10T13:15:10.462Z,2.30
2022-11-10T13:16:10.456Z,2.30
2022-11-10T13:17:10.463Z,2.30
2022-11-10T13:18:10.469Z,2.80